Time;durP1;ratioP1;P1;durP2;ratioP2;P2;SDS_P1;SDS_P2;PMS_P1;PMS_P2;Temp;Humidity;BMP_temperature;BMP_pressure;BME280_temperature;BME280_humidity;BME280_pressure;Samples;Min_cycle;Max_cycle;Signal;HPM_P1;HPM_P2
2022/05/14 00:00:25;;;;;;;15.77;11.53;;;;;;;;;;5059061;28;20522;-85
2022/05/14 00:02:52;;;;;;;16.40;12.47;;;;;;;;;;5077906;28;20428;-85
2022/05/14 00:05:19;;;;;;;12.50;11.20;;;;;;;;;;5077871;28;20446;-85
2022/05/14 00:07:46;;;;;;;12.60;10.80;;;;;;;;;;5062355;28;20448;-86
2022/05/14 00:10:12;;;;;;;15.30;11.70;;;;;;;;;;5080511;28;20456;-87
2022/05/14 00:15:23;;;;;;;19.50;11.03;;;;;;;;;;5079570;28;20396;-86
2022/05/14 00:17:49;;;;;;;15.00;11.80;;;;;;;;;;5080285;28;20397;-87
2022/05/14 00:20:16;;;;;;;13.43;11.90;;;;;;;;;;5078809;28;20614;-87
2022/05/14 00:22:43;;;;;;;15.80;11.03;;;;;;;;;;5079749;28;20946;-85
2022/05/14 00:25:09;;;;;;;12.43;10.67;;;;;;;;;;5061817;28;20415;-87
2022/05/14 00:27:40;;;;;;;15.90;11.63;;;;;;;;;;5079029;28;20468;-86
2022/05/14 00:30:07;;;;;;;12.37;10.87;;;;;;;;;;5060593;28;20951;-85
2022/05/14 00:32:33;;;;;;;16.43;10.60;;;;;;;;;;5060597;28;20429;-87
2022/05/14 00:34:59;;;;;;;13.83;10.60;;;;;;;;;;5078948;28;20397;-85
2022/05/14 00:37:26;;;;;;;13.37;10.57;;;;;;;;;;5078504;28;20405;-86
2022/05/14 00:39:52;;;;;;;11.03;9.80;;;;;;;;;;5060530;28;20424;-85
2022/05/14 00:42:18;;;;;;;14.47;9.57;;;;;;;;;;5061241;28;20444;-87
2022/05/14 00:44:44;;;;;;;12.40;9.90;;;;;;;;;;5082276;28;20464;-87
2022/05/14 00:47:13;;;;;;;15.23;11.13;;;;;;;;;;5064693;28;20544;-87
2022/05/14 00:49:39;;;;;;;12.93;9.93;;;;;;;;;;5064264;28;20523;-87
2022/05/14 00:52:05;;;;;;;10.90;9.33;;;;;;;;;;5082111;28;20411;-87
2022/05/14 00:54:51;;;;;;;10.30;9.20;;;;;;;;;;5064582;28;20397;-86
2022/05/14 00:57:20;;;;;;;12.00;9.63;;;;;;;;;;5081983;28;20404;-87
2022/05/14 00:59:46;;;;;;;15.27;10.47;;;;;;;;;;5064753;28;20472;-87
2022/05/14 01:02:12;;;;;;;12.50;9.40;;;;;;;;;;5087766;28;20414;-87
2022/05/14 01:04:43;;;;;;;12.00;9.23;;;;;;;;;;5084251;28;20408;-87
2022/05/14 01:07:11;;;;;;;12.90;9.90;;;;;;;;;;5064767;28;20452;-87
2022/05/14 01:09:38;;;;;;;10.83;9.53;;;;;;;;;;5063968;28;20435;-85
2022/05/14 01:12:05;;;;;;;11.03;9.70;;;;;;;;;;5068297;28;20393;-85
2022/05/14 01:14:31;;;;;;;10.13;8.90;;;;;;;;;;5082604;28;20409;-85
2022/05/14 01:16:57;;;;;;;13.83;9.60;;;;;;;;;;5063123;28;20492;-86
2022/05/14 01:19:23;;;;;;;13.50;10.17;;;;;;;;;;5080714;28;20488;-86
2022/05/14 01:21:55;;;;;;;10.43;8.73;;;;;;;;;;5082100;28;20411;-85
2022/05/14 01:27:11;;;;;;;11.70;9.60;;;;;;;;;;5081465;28;20486;-85
2022/05/14 01:29:38;;;;;;;10.87;9.70;;;;;;;;;;5080378;28;20538;-85
2022/05/14 01:32:05;;;;;;;12.40;8.90;;;;;;;;;;5063168;28;20400;-87
2022/05/14 01:34:32;;;;;;;10.67;9.50;;;;;;;;;;5080881;28;20405;-87
2022/05/14 01:36:59;;;;;;;14.60;10.53;;;;;;;;;;5080786;28;20384;-87
2022/05/14 01:39:25;;;;;;;18.70;11.63;;;;;;;;;;5080205;28;20431;-86
2022/05/14 01:41:51;;;;;;;11.50;10.17;;;;;;;;;;5081022;28;20428;-86
2022/05/14 01:44:18;;;;;;;17.10;11.87;;;;;;;;;;5068459;28;20405;-87
2022/05/14 01:46:44;;;;;;;19.50;13.20;;;;;;;;;;5083935;28;20456;-87
2022/05/14 01:49:10;;;;;;;18.50;12.50;;;;;;;;;;5064812;28;20447;-86
2022/05/14 01:51:36;;;;;;;14.47;12.40;;;;;;;;;;5090846;28;20451;-87
2022/05/14 01:54:03;;;;;;;20.27;12.87;;;;;;;;;;5088482;28;20472;-86
2022/05/14 01:56:29;;;;;;;13.60;11.80;;;;;;;;;;5081516;28;20401;-87
2022/05/14 01:58:55;;;;;;;15.43;12.63;;;;;;;;;;5063621;28;20440;-87
2022/05/14 02:01:25;;;;;;;16.27;12.60;;;;;;;;;;5081025;28;20401;-87
2022/05/14 02:03:56;;;;;;;14.90;12.37;;;;;;;;;;5081414;28;20401;-86
2022/05/14 02:06:22;;;;;;;14.40;12.27;;;;;;;;;;5081301;28;20422;-87
2022/05/14 02:08:48;;;;;;;13.33;11.27;;;;;;;;;;5062364;28;20421;-86
2022/05/14 02:11:15;;;;;;;15.73;12.33;;;;;;;;;;5064220;28;20439;-85
2022/05/14 02:13:42;;;;;;;12.80;11.03;;;;;;;;;;5081590;28;20468;-87
2022/05/14 02:16:08;;;;;;;17.03;11.37;;;;;;;;;;5064128;28;20401;-87
2022/05/14 02:18:34;;;;;;;12.20;10.97;;;;;;;;;;5063730;28;20453;-87
2022/05/14 02:21:01;;;;;;;15.93;11.13;;;;;;;;;;5063108;28;20846;-85
2022/05/14 02:23:27;;;;;;;17.70;11.77;;;;;;;;;;5080564;28;20389;-87
2022/05/14 02:25:56;;;;;;;13.73;11.50;;;;;;;;;;5080749;28;20446;-87
2022/05/14 02:28:22;;;;;;;17.30;11.97;;;;;;;;;;5080987;28;20460;-87
2022/05/14 02:30:48;;;;;;;15.50;12.20;;;;;;;;;;5062819;28;20431;-85
2022/05/14 02:33:15;;;;;;;15.30;12.57;;;;;;;;;;5062045;28;20828;-87
2022/05/14 02:35:41;;;;;;;14.73;11.30;;;;;;;;;;5064048;28;20970;-87
2022/05/14 02:38:07;;;;;;;14.00;11.73;;;;;;;;;;5065479;28;20435;-87
2022/05/14 02:40:34;;;;;;;15.20;12.50;;;;;;;;;;5081290;28;20405;-87
2022/05/14 02:43:00;;;;;;;17.53;13.93;;;;;;;;;;5080227;28;20866;-87
2022/05/14 02:45:26;;;;;;;17.10;13.07;;;;;;;;;;5080357;28;20405;-87
2022/05/14 02:47:52;;;;;;;16.67;13.27;;;;;;;;;;5062469;28;20460;-87
2022/05/14 02:50:18;;;;;;;15.10;13.57;;;;;;;;;;5080044;28;20420;-87
2022/05/14 02:52:44;;;;;;;14.93;13.37;;;;;;;;;;5080308;28;20404;-87
2022/05/14 02:55:11;;;;;;;22.70;14.67;;;;;;;;;;5062265;28;20412;-85
2022/05/14 02:57:37;;;;;;;18.00;14.80;;;;;;;;;;5079894;28;20469;-87
2022/05/14 03:00:04;;;;;;;17.53;13.20;;;;;;;;;;5079895;28;21034;-87
2022/05/14 03:02:30;;;;;;;16.10;13.83;;;;;;;;;;5080861;28;20401;-86
2022/05/14 03:04:56;;;;;;;26.33;17.87;;;;;;;;;;5064035;28;20457;-85
2022/05/14 03:07:22;;;;;;;17.33;14.40;;;;;;;;;;5070106;28;20538;-86
2022/05/14 03:09:49;;;;;;;17.97;14.53;;;;;;;;;;5071283;28;20425;-87
2022/05/14 03:12:15;;;;;;;17.50;15.20;;;;;;;;;;5079722;28;20406;-87
2022/05/14 03:14:42;;;;;;;16.77;14.23;;;;;;;;;;5079719;28;20484;-87
2022/05/14 03:17:08;;;;;;;16.97;14.30;;;;;;;;;;5061728;28;20448;-86
2022/05/14 03:19:35;;;;;;;18.83;14.23;;;;;;;;;;5078913;28;20416;-87
2022/05/14 03:22:01;;;;;;;17.00;13.90;;;;;;;;;;5079366;28;20496;-87
2022/05/14 03:24:27;;;;;;;18.33;14.37;;;;;;;;;;5061959;28;20785;-85
2022/05/14 03:26:53;;;;;;;15.47;13.87;;;;;;;;;;5076548;28;20449;-85
2022/05/14 03:29:20;;;;;;;16.13;14.30;;;;;;;;;;5090848;28;20451;-84
2022/05/14 03:31:47;;;;;;;17.43;14.30;;;;;;;;;;5079034;28;20472;-85
2022/05/14 03:34:13;;;;;;;14.73;13.20;;;;;;;;;;5097956;28;20495;-86
2022/05/14 03:36:42;;;;;;;17.80;13.00;;;;;;;;;;5080239;28;20908;-85
2022/05/14 03:39:08;;;;;;;16.57;13.73;;;;;;;;;;5081536;28;20448;-86
2022/05/14 03:41:35;;;;;;;15.10;12.90;;;;;;;;;;5099785;28;20400;-86
2022/05/14 03:44:01;;;;;;;14.53;12.90;;;;;;;;;;5099366;28;20491;-87
2022/05/14 03:46:27;;;;;;;15.60;14.00;;;;;;;;;;5081936;28;20403;-86
2022/05/14 03:48:53;;;;;;;22.43;14.47;;;;;;;;;;5081611;28;20424;-86
2022/05/14 03:51:19;;;;;;;14.60;13.20;;;;;;;;;;5080783;28;20399;-86
2022/05/14 03:53:47;;;;;;;20.57;13.60;;;;;;;;;;5099260;28;20904;-85
2022/05/14 03:56:13;;;;;;;16.37;14.30;;;;;;;;;;5098890;28;20818;-86
2022/05/14 03:58:39;;;;;;;16.00;13.93;;;;;;;;;;5119448;22;20482;-83
2022/05/14 04:01:06;;;;;;;17.47;14.17;;;;;;;;;;5056704;28;20436;-83
2022/05/14 04:03:33;;;;;;;18.13;15.20;;;;;;;;;;5058378;28;20812;-83
2022/05/14 04:05:59;;;;;;;16.30;14.60;;;;;;;;;;5059010;28;20405;-83
2022/05/14 04:08:26;;;;;;;17.47;14.17;;;;;;;;;;5040692;28;20453;-83
2022/05/14 04:10:52;;;;;;;16.73;14.97;;;;;;;;;;5058864;28;20800;-83
2022/05/14 04:13:18;;;;;;;15.97;13.70;;;;;;;;;;5058808;28;20920;-83
2022/05/14 04:15:44;;;;;;;17.80;14.23;;;;;;;;;;5061720;28;20409;-83
2022/05/14 04:18:11;;;;;;;15.53;13.67;;;;;;;;;;5061308;28;20447;-83
2022/05/14 04:20:37;;;;;;;17.47;15.57;;;;;;;;;;5062785;28;20421;-83
2022/05/14 04:23:04;;;;;;;14.77;13.20;;;;;;;;;;5044516;28;20978;-83
2022/05/14 04:25:30;;;;;;;17.20;14.20;;;;;;;;;;5062633;28;20488;-83
2022/05/14 04:27:56;;;;;;;17.80;13.40;;;;;;;;;;5063258;28;20814;-83
2022/05/14 04:30:22;;;;;;;14.97;13.03;;;;;;;;;;5062222;28;20416;-84
2022/05/14 04:32:48;;;;;;;13.90;12.47;;;;;;;;;;5044734;28;20492;-83
2022/05/14 04:35:16;;;;;;;13.90;11.00;;;;;;;;;;5062358;28;20408;-83
2022/05/14 04:37:42;;;;;;;13.93;11.30;;;;;;;;;;5062391;28;20413;-83
2022/05/14 04:40:09;;;;;;;16.70;12.20;;;;;;;;;;5062422;28;20426;-83
2022/05/14 04:42:38;;;;;;;14.50;12.80;;;;;;;;;;5062391;28;20393;-83
2022/05/14 04:45:08;;;;;;;14.07;12.67;;;;;;;;;;5062397;28;20401;-83
2022/05/14 04:47:34;;;;;;;15.43;11.10;;;;;;;;;;5061947;28;20448;-83
2022/05/14 04:50:01;;;;;;;13.20;11.80;;;;;;;;;;5062084;28;20421;-83
2022/05/14 04:52:27;;;;;;;14.00;11.70;;;;;;;;;;5044606;28;20905;-83
2022/05/14 04:54:53;;;;;;;13.90;11.80;;;;;;;;;;5062037;28;20769;-83
2022/05/14 04:57:19;;;;;;;13.53;11.60;;;;;;;;;;5061712;28;20434;-82
2022/05/14 04:59:45;;;;;;;14.57;12.10;;;;;;;;;;5062228;28;20441;-83
2022/05/14 05:04:55;;;;;;;17.93;10.13;;;;;;;;;;5062322;28;20413;-83
2022/05/14 05:07:21;;;;;;;12.20;11.00;;;;;;;;;;5062388;28;20445;-83
2022/05/14 05:09:48;;;;;;;12.57;11.07;;;;;;;;;;5062309;28;20425;-83
2022/05/14 05:12:14;;;;;;;15.20;10.50;;;;;;;;;;5061514;28;20905;-83
2022/05/14 05:14:41;;;;;;;11.53;9.73;;;;;;;;;;5061749;28;20404;-83
2022/05/14 05:17:07;;;;;;;16.77;10.40;;;;;;;;;;5062009;28;20414;-83
2022/05/14 05:19:34;;;;;;;13.03;10.27;;;;;;;;;;5047767;28;20455;-83
2022/05/14 05:22:00;;;;;;;12.37;9.97;;;;;;;;;;5062313;28;20406;-83
2022/05/14 05:24:26;;;;;;;11.93;10.00;;;;;;;;;;5062704;28;20471;-83
2022/05/14 05:26:52;;;;;;;16.00;9.20;;;;;;;;;;5062727;28;20453;-83
2022/05/14 05:29:18;;;;;;;13.87;9.60;;;;;;;;;;5061526;28;20501;-84
2022/05/14 05:31:44;;;;;;;11.73;10.13;;;;;;;;;;5061523;28;20456;-83
2022/05/14 05:34:10;;;;;;;11.07;8.63;;;;;;;;;;5041989;28;20474;-83
2022/05/14 05:36:36;;;;;;;14.00;10.67;;;;;;;;;;5063057;28;20467;-82
2022/05/14 05:39:03;;;;;;;11.40;10.30;;;;;;;;;;5067940;28;20476;-83
2022/05/14 05:41:29;;;;;;;13.70;9.73;;;;;;;;;;5061620;28;20406;-83
2022/05/14 05:43:55;;;;;;;12.80;10.90;;;;;;;;;;5061154;28;20485;-83
2022/05/14 05:46:22;;;;;;;12.37;9.40;;;;;;;;;;5041534;28;20898;-84
2022/05/14 05:48:48;;;;;;;11.43;9.90;;;;;;;;;;5058864;28;20475;-84
2022/05/14 05:51:14;;;;;;;13.17;8.97;;;;;;;;;;5060824;28;20406;-83
2022/05/14 05:59:09;;;;;;;13.47;8.27;;;;;;;;;;5060467;28;20460;-84
2022/05/14 06:01:36;;;;;;;10.10;8.70;;;;;;;;;;5061036;28;20521;-83
2022/05/14 06:04:02;;;;;;;11.17;8.57;;;;;;;;;;5060971;28;20397;-83
2022/05/14 06:06:28;;;;;;;11.27;8.60;;;;;;;;;;5042942;28;20432;-83
2022/05/14 06:08:54;;;;;;;12.60;9.10;;;;;;;;;;5060637;28;20449;-83
2022/05/14 06:11:20;;;;;;;14.53;9.80;;;;;;;;;;5043241;28;20410;-84
2022/05/14 06:13:47;;;;;;;13.50;9.50;;;;;;;;;;5042947;28;20462;-84
2022/05/14 06:16:14;;;;;;;12.63;9.60;;;;;;;;;;5061448;28;20886;-83
2022/05/14 06:18:42;;;;;;;11.97;9.20;;;;;;;;;;5060468;28;20398;-84
2022/05/14 06:21:09;;;;;;;15.60;9.40;;;;;;;;;;5060919;28;20913;-84
2022/05/14 06:23:35;;;;;;;13.63;9.10;;;;;;;;;;5063578;28;20398;-83
2022/05/14 06:26:01;;;;;;;15.93;10.60;;;;;;;;;;5063107;28;20402;-83
2022/05/14 06:28:27;;;;;;;11.23;9.10;;;;;;;;;;5061187;28;20453;-83
2022/05/14 06:30:53;;;;;;;12.60;9.90;;;;;;;;;;5043363;28;20410;-84
2022/05/14 06:33:20;;;;;;;15.60;9.13;;;;;;;;;;5064004;28;20398;-82
2022/05/14 06:35:46;;;;;;;23.77;9.47;;;;;;;;;;5061447;28;20501;-84
2022/05/14 06:38:13;;;;;;;14.90;10.53;;;;;;;;;;5060428;28;20409;-83
2022/05/14 06:40:39;;;;;;;11.90;8.70;;;;;;;;;;5062287;28;20437;-83
2022/05/14 06:43:06;;;;;;;11.07;9.33;;;;;;;;;;5043306;28;20492;-83
2022/05/14 06:45:32;;;;;;;10.20;9.30;;;;;;;;;;5061078;28;20944;-83
2022/05/14 06:47:58;;;;;;;12.57;9.37;;;;;;;;;;5060717;28;20452;-83
2022/05/14 06:50:25;;;;;;;11.80;8.47;;;;;;;;;;5060262;28;20430;-84
2022/05/14 06:52:53;;;;;;;9.90;6.63;;;;;;;;;;5060269;28;20508;-84
2022/05/14 06:55:21;;;;;;;9.13;6.80;;;;;;;;;;5060465;28;20401;-83
2022/05/14 06:57:48;;;;;;;9.30;6.80;;;;;;;;;;5060397;28;20406;-84
2022/05/14 07:00:14;;;;;;;7.30;6.20;;;;;;;;;;5059912;28;20468;-83
2022/05/14 07:02:40;;;;;;;7.00;5.63;;;;;;;;;;5060178;28;20500;-84
2022/05/14 07:07:51;;;;;;;9.60;6.30;;;;;;;;;;5060038;28;20536;-84
2022/05/14 07:10:17;;;;;;;6.40;5.30;;;;;;;;;;5059668;28;20444;-85
2022/05/14 07:12:43;;;;;;;9.20;6.23;;;;;;;;;;5059818;28;20488;-83
2022/05/14 07:15:12;;;;;;;9.07;5.80;;;;;;;;;;5059950;28;20406;-83
2022/05/14 07:17:38;;;;;;;7.83;5.70;;;;;;;;;;5060066;28;20401;-84
2022/05/14 07:20:04;;;;;;;7.10;5.93;;;;;;;;;;5059253;28;20421;-83
2022/05/14 07:22:30;;;;;;;10.73;6.20;;;;;;;;;;5059805;28;20853;-83
2022/05/14 07:24:57;;;;;;;8.43;6.73;;;;;;;;;;5059861;28;20792;-83
2022/05/14 07:27:23;;;;;;;6.30;5.53;;;;;;;;;;5058581;28;20767;-84
2022/05/14 07:29:49;;;;;;;8.73;5.70;;;;;;;;;;5059040;28;20467;-84
2022/05/14 07:32:16;;;;;;;7.60;5.07;;;;;;;;;;5059317;28;20437;-83
2022/05/14 07:34:42;;;;;;;6.27;5.17;;;;;;;;;;5058737;28;20413;-83
2022/05/14 07:37:16;;;;;;;7.00;4.40;;;;;;;;;;5059173;28;20433;-84
2022/05/14 07:39:48;;;;;;;7.33;3.50;;;;;;;;;;5041014;28;20427;-83
2022/05/14 07:42:17;;;;;;;10.27;4.13;;;;;;;;;;5041474;28;20489;-83
2022/05/14 07:44:46;;;;;;;6.93;3.03;;;;;;;;;;5059494;28;20402;-83
2022/05/14 07:47:13;;;;;;;12.20;3.20;;;;;;;;;;5060256;28;20445;-84
2022/05/14 07:49:41;;;;;;;5.60;2.90;;;;;;;;;;5064256;28;21011;-83
2022/05/14 07:52:07;;;;;;;5.57;2.07;;;;;;;;;;5064353;28;20428;-83
2022/05/14 07:54:33;;;;;;;6.37;2.00;;;;;;;;;;5059406;28;20413;-83
2022/05/14 07:57:00;;;;;;;6.37;2.60;;;;;;;;;;5059758;28;20466;-83
2022/05/14 07:59:27;;;;;;;5.33;3.53;;;;;;;;;;5058290;28;20457;-84
2022/05/14 08:01:53;;;;;;;6.50;3.20;;;;;;;;;;5040985;28;20432;-84
2022/05/14 08:04:19;;;;;;;7.03;3.23;;;;;;;;;;5059301;28;20835;-81
2022/05/14 08:06:45;;;;;;;6.20;3.00;;;;;;;;;;5059145;28;20432;-83
2022/05/14 08:09:11;;;;;;;5.33;2.80;;;;;;;;;;5059039;28;20434;-83
2022/05/14 08:11:38;;;;;;;5.20;3.50;;;;;;;;;;5058572;28;20428;-83
2022/05/14 08:14:04;;;;;;;8.80;3.10;;;;;;;;;;5059297;28;20406;-82
2022/05/14 08:16:31;;;;;;;6.97;3.63;;;;;;;;;;5059016;28;20425;-83
2022/05/14 08:18:57;;;;;;;6.10;2.97;;;;;;;;;;5058549;28;20421;-82
2022/05/14 08:26:53;;;;;;;6.23;3.10;;;;;;;;;;5058661;28;20480;-83
2022/05/14 08:29:20;;;;;;;5.80;3.00;;;;;;;;;;5058411;28;20976;-83
2022/05/14 08:31:46;;;;;;;5.33;3.07;;;;;;;;;;5058530;28;20760;-83
2022/05/14 08:34:12;;;;;;;4.30;2.97;;;;;;;;;;5040589;28;20470;-83
2022/05/14 08:36:38;;;;;;;7.17;3.30;;;;;;;;;;5060735;28;20401;-83
2022/05/14 08:39:04;;;;;;;10.27;4.50;;;;;;;;;;5058473;28;20418;-83
2022/05/14 08:41:33;;;;;;;7.50;3.70;;;;;;;;;;5057905;28;20412;-83
2022/05/14 08:44:01;;;;;;;4.10;3.17;;;;;;;;;;5057994;28;20927;-83
2022/05/14 08:46:27;;;;;;;6.60;3.67;;;;;;;;;;5057968;28;20420;-83
2022/05/14 08:48:55;;;;;;;5.63;2.77;;;;;;;;;;5057882;28;20805;-83
2022/05/14 08:51:24;;;;;;;8.13;3.70;;;;;;;;;;5058659;28;20767;-83
2022/05/14 08:53:50;;;;;;;3.50;2.70;;;;;;;;;;5058200;28;20480;-82
2022/05/14 08:56:26;;;;;;;6.90;3.23;;;;;;;;;;5058947;28;20484;-83
2022/05/14 08:59:11;;;;;;;7.77;3.10;;;;;;;;;;5058474;28;20839;-83
2022/05/14 09:01:39;;;;;;;4.50;2.70;;;;;;;;;;5040524;28;20404;-83
2022/05/14 09:04:05;;;;;;;4.87;2.80;;;;;;;;;;5058633;28;20425;-83
2022/05/14 09:06:31;;;;;;;6.50;3.37;;;;;;;;;;5058038;28;20397;-83
2022/05/14 09:08:57;;;;;;;6.40;2.60;;;;;;;;;;5057943;28;20457;-83
2022/05/14 09:11:28;;;;;;;5.87;2.90;;;;;;;;;;5058625;28;20427;-82
2022/05/14 09:13:56;;;;;;;5.70;3.83;;;;;;;;;;5059023;28;20408;-83
2022/05/14 09:16:22;;;;;;;7.27;3.37;;;;;;;;;;5059260;28;20752;-83
2022/05/14 09:18:49;;;;;;;6.37;3.10;;;;;;;;;;5041720;28;21116;-83
2022/05/14 09:21:24;;;;;;;5.40;3.60;;;;;;;;;;5042547;28;20409;-82
2022/05/14 09:23:55;;;;;;;5.73;3.27;;;;;;;;;;5060542;28;20443;-83
2022/05/14 09:26:26;;;;;;;3.53;2.63;;;;;;;;;;5060951;28;20803;-83
2022/05/14 09:28:58;;;;;;;9.40;3.90;;;;;;;;;;5059654;28;20453;-82
2022/05/14 09:31:36;;;;;;;5.80;3.20;;;;;;;;;;5059423;28;20402;-83
2022/05/14 09:34:05;;;;;;;6.20;3.00;;;;;;;;;;5060368;28;20437;-83
2022/05/14 09:36:32;;;;;;;4.93;2.53;;;;;;;;;;5059369;28;20482;-83
2022/05/14 09:39:17;;;;;;;7.17;3.40;;;;;;;;;;5060249;28;20417;-83
2022/05/14 09:41:43;;;;;;;6.10;3.70;;;;;;;;;;5061137;28;20710;-83
2022/05/14 09:44:20;;;;;;;6.47;3.93;;;;;;;;;;5062275;28;20421;-83
2022/05/14 09:46:47;;;;;;;5.53;3.20;;;;;;;;;;5061981;28;20404;-83
2022/05/14 09:49:19;;;;;;;7.50;4.30;;;;;;;;;;5060948;28;20430;-84
2022/05/14 09:51:51;;;;;;;4.50;2.90;;;;;;;;;;5061828;28;20436;-83
2022/05/14 09:54:21;;;;;;;4.97;2.90;;;;;;;;;;5044012;28;20493;-83
2022/05/14 09:56:57;;;;;;;7.50;2.90;;;;;;;;;;5043521;28;20439;-83
2022/05/14 09:59:49;;;;;;;7.07;3.20;;;;;;;;;;5087623;23;20587;-85
2022/05/14 10:02:23;;;;;;;4.27;2.97;;;;;;;;;;5029981;28;20498;-87
2022/05/14 10:05:26;;;;;;;4.93;3.00;;;;;;;;;;5043087;28;20390;-86
2022/05/14 10:08:00;;;;;;;5.70;3.43;;;;;;;;;;4980128;28;20595;-87
2022/05/14 10:10:43;;;;;;;6.80;3.00;;;;;;;;;;5050081;28;20521;-85
2022/05/14 10:13:25;;;;;;;7.70;3.70;;;;;;;;;;5042230;28;20910;-87
2022/05/14 10:15:57;;;;;;;6.97;4.40;;;;;;;;;;5042638;28;20463;-87
2022/05/14 10:18:35;;;;;;;6.20;3.20;;;;;;;;;;5044520;28;20405;-86
2022/05/14 10:21:01;;;;;;;7.77;3.70;;;;;;;;;;5043865;28;20441;-87
2022/05/14 10:29:03;;;;;;;7.50;3.50;;;;;;;;;;5063747;28;20447;-86
2022/05/14 10:31:29;;;;;;;7.70;2.87;;;;;;;;;;5076272;28;20396;-86
2022/05/14 10:33:57;;;;;;;5.00;3.00;;;;;;;;;;5053749;28;20406;-85
2022/05/14 10:36:32;;;;;;;6.23;3.10;;;;;;;;;;5045445;28;20735;-88
2022/05/14 10:39:02;;;;;;;4.57;3.03;;;;;;;;;;5043918;28;20408;-86
2022/05/14 10:41:34;;;;;;;8.50;3.13;;;;;;;;;;5044258;28;20410;-85
2022/05/14 10:44:05;;;;;;;4.23;2.60;;;;;;;;;;5060633;28;20481;-86
2022/05/14 10:46:34;;;;;;;7.33;2.63;;;;;;;;;;5043105;28;20463;-85
2022/05/14 10:49:00;;;;;;;6.83;2.10;;;;;;;;;;5042744;28;21061;-85
2022/05/14 10:51:31;;;;;;;4.57;2.63;;;;;;;;;;5068336;28;20414;-87
2022/05/14 10:53:59;;;;;;;6.20;2.57;;;;;;;;;;5045925;28;20424;-85
2022/05/14 10:56:30;;;;;;;4.60;2.87;;;;;;;;;;5062872;28;20497;-87
2022/05/14 10:59:10;;;;;;;8.40;3.13;;;;;;;;;;5050689;28;20420;-84
2022/05/14 11:01:36;;;;;;;6.10;2.33;;;;;;;;;;5076982;28;20413;-83
2022/05/14 11:04:21;;;;;;;6.20;2.90;;;;;;;;;;5081671;28;20434;-86
2022/05/14 11:06:54;;;;;;;6.00;2.80;;;;;;;;;;5093507;28;20421;-86
2022/05/14 11:09:36;;;;;;;4.67;2.47;;;;;;;;;;5094594;28;20440;-83
2022/05/14 11:12:04;;;;;;;6.63;2.63;;;;;;;;;;5087733;28;20404;-82
2022/05/14 11:14:51;;;;;;;3.57;2.03;;;;;;;;;;5054416;28;20413;-83
2022/05/14 11:17:23;;;;;;;7.17;2.70;;;;;;;;;;5067670;28;20412;-84
2022/05/14 11:19:49;;;;;;;6.37;2.67;;;;;;;;;;5061420;28;20425;-84
2022/05/14 11:22:27;;;;;;;4.93;2.43;;;;;;;;;;5078959;28;20431;-85
2022/05/14 11:24:54;;;;;;;4.63;2.60;;;;;;;;;;5080516;28;20442;-89
2022/05/14 11:27:31;;;;;;;6.27;2.87;;;;;;;;;;5079805;28;20521;-85
2022/05/14 11:30:09;;;;;;;4.60;2.50;;;;;;;;;;5088107;28;20436;-84
2022/05/14 11:32:55;;;;;;;4.53;2.17;;;;;;;;;;5080729;28;20393;-84
2022/05/14 11:35:21;;;;;;;5.30;2.00;;;;;;;;;;5094546;28;20404;-86
2022/05/14 11:37:50;;;;;;;3.80;2.10;;;;;;;;;;5060948;28;20465;-85
2022/05/14 11:40:22;;;;;;;5.03;2.70;;;;;;;;;;5077622;28;20936;-86
2022/05/14 11:42:52;;;;;;;5.60;2.30;;;;;;;;;;5060681;28;20520;-86
2022/05/14 11:45:24;;;;;;;4.37;2.60;;;;;;;;;;5061257;28;20503;-86
2022/05/14 11:47:55;;;;;;;6.80;2.70;;;;;;;;;;5079010;28;20460;-86
2022/05/14 11:50:24;;;;;;;8.23;2.10;;;;;;;;;;5061030;28;20820;-86
2022/05/14 11:53:01;;;;;;;4.20;2.30;;;;;;;;;;5061263;28;20443;-85
2022/05/14 11:55:34;;;;;;;6.87;2.40;;;;;;;;;;5060794;28;20432;-88
2022/05/14 11:58:06;;;;;;;3.97;2.47;;;;;;;;;;5078532;28;20392;-87
2022/05/14 12:00:33;;;;;;;5.07;2.40;;;;;;;;;;5078092;28;20448;-86
2022/05/14 12:03:02;;;;;;;6.70;2.77;;;;;;;;;;5078156;28;20409;-85
2022/05/14 12:05:33;;;;;;;6.70;2.87;;;;;;;;;;5060214;28;20442;-87
2022/05/14 12:08:10;;;;;;;5.27;2.33;;;;;;;;;;5078471;28;20461;-86
2022/05/14 12:10:36;;;;;;;6.10;3.30;;;;;;;;;;5060345;28;20464;-86
2022/05/14 12:13:09;;;;;;;5.70;2.40;;;;;;;;;;5078357;28;20829;-86
2022/05/14 12:15:35;;;;;;;4.90;2.10;;;;;;;;;;5060261;28;20472;-86
2022/05/14 12:18:01;;;;;;;3.23;2.43;;;;;;;;;;5078883;28;20412;-86
2022/05/14 12:20:32;;;;;;;3.50;1.97;;;;;;;;;;5078186;28;20610;-87
2022/05/14 12:23:05;;;;;;;2.90;2.20;;;;;;;;;;5060840;28;20423;-87
2022/05/14 12:25:42;;;;;;;5.63;2.60;;;;;;;;;;5077844;28;20430;-85
2022/05/14 12:28:18;;;;;;;4.13;2.07;;;;;;;;;;5059742;28;20543;-85
2022/05/14 12:33:35;;;;;;;6.53;2.63;;;;;;;;;;5078481;28;20381;-87
2022/05/14 12:36:02;;;;;;;4.20;2.73;;;;;;;;;;5059864;28;20404;-86
2022/05/14 12:38:33;;;;;;;5.80;3.10;;;;;;;;;;5079762;28;20423;-86
2022/05/14 12:40:59;;;;;;;7.00;2.80;;;;;;;;;;5063854;28;20466;-85
2022/05/14 12:43:26;;;;;;;3.07;2.33;;;;;;;;;;5081364;28;20454;-86
2022/05/14 12:46:07;;;;;;;6.97;2.50;;;;;;;;;;5064331;28;20404;-86
2022/05/14 12:48:42;;;;;;;4.10;2.67;;;;;;;;;;5062942;28;20463;-86
2022/05/14 12:51:08;;;;;;;5.67;2.47;;;;;;;;;;5081624;28;20927;-86
2022/05/14 12:53:42;;;;;;;2.70;2.10;;;;;;;;;;5063603;28;20408;-86
2022/05/14 12:56:09;;;;;;;4.73;2.50;;;;;;;;;;5081851;28;20388;-87
2022/05/14 12:58:36;;;;;;;6.73;3.47;;;;;;;;;;5063266;28;20421;-87
2022/05/14 13:01:04;;;;;;;6.67;2.37;;;;;;;;;;5080701;28;20503;-87
2022/05/14 13:03:31;;;;;;;5.47;2.37;;;;;;;;;;5064231;28;20416;-86
2022/05/14 13:05:59;;;;;;;7.20;2.73;;;;;;;;;;5083923;28;20500;-87
2022/05/14 13:08:26;;;;;;;5.27;2.33;;;;;;;;;;5063821;28;20895;-87
2022/05/14 13:10:54;;;;;;;3.50;2.37;;;;;;;;;;5064957;28;20424;-86
2022/05/14 13:13:29;;;;;;;5.80;2.47;;;;;;;;;;5077813;28;20411;-86
2022/05/14 13:15:55;;;;;;;3.73;2.80;;;;;;;;;;5069809;28;20396;-87
2022/05/14 13:18:23;;;;;;;5.37;2.47;;;;;;;;;;5082153;28;20483;-86
2022/05/14 13:21:00;;;;;;;4.47;2.30;;;;;;;;;;5081193;28;20456;-87
2022/05/14 13:23:26;;;;;;;7.10;2.67;;;;;;;;;;5063466;28;20413;-86
2022/05/14 13:25:58;;;;;;;4.70;2.17;;;;;;;;;;5081527;28;20409;-85
2022/05/14 13:28:25;;;;;;;4.43;2.07;;;;;;;;;;5080800;28;20463;-86
2022/05/14 13:30:51;;;;;;;3.57;2.10;;;;;;;;;;5081160;28;20483;-87
2022/05/14 13:33:26;;;;;;;5.37;3.00;;;;;;;;;;5063103;28;20401;-85
2022/05/14 13:38:39;;;;;;;3.07;2.23;;;;;;;;;;5087770;28;20384;-86
2022/05/14 13:41:08;;;;;;;10.33;2.50;;;;;;;;;;5088190;28;20431;-87
2022/05/14 13:43:36;;;;;;;4.10;2.20;;;;;;;;;;5062605;28;20404;-87
2022/05/14 13:46:14;;;;;;;6.60;2.50;;;;;;;;;;5062938;28;20419;-86
2022/05/14 13:48:43;;;;;;;3.50;2.10;;;;;;;;;;5080623;28;20451;-86
2022/05/14 13:51:17;;;;;;;5.37;2.60;;;;;;;;;;5080109;28;20488;-87
2022/05/14 13:53:44;;;;;;;5.20;2.50;;;;;;;;;;5080044;28;20434;-87
2022/05/14 13:56:13;;;;;;;9.03;3.13;;;;;;;;;;5080912;28;20907;-87
2022/05/14 13:58:42;;;;;;;6.53;1.97;;;;;;;;;;5063277;28;20409;-87
2022/05/14 14:01:29;;;;;;;4.70;2.17;;;;;;;;;;5081672;28;20447;-87
2022/05/14 14:03:56;;;;;;;5.93;2.13;;;;;;;;;;5082805;28;20404;-87
2022/05/14 14:06:32;;;;;;;5.93;2.80;;;;;;;;;;5063876;28;20413;-86
2022/05/14 14:08:59;;;;;;;4.90;2.27;;;;;;;;;;5063493;28;20455;-87
2022/05/14 14:11:25;;;;;;;4.97;2.30;;;;;;;;;;5081755;28;20396;-87
2022/05/14 14:13:52;;;;;;;3.27;2.10;;;;;;;;;;5081454;28;20405;-87
2022/05/14 14:16:18;;;;;;;4.63;2.20;;;;;;;;;;5062893;28;20780;-87
2022/05/14 14:18:45;;;;;;;5.47;2.30;;;;;;;;;;5063496;28;20416;-87
2022/05/14 14:21:12;;;;;;;4.00;2.20;;;;;;;;;;5062524;28;20481;-86
2022/05/14 14:23:43;;;;;;;5.70;2.23;;;;;;;;;;5080233;28;20401;-87
2022/05/14 14:26:10;;;;;;;7.50;2.20;;;;;;;;;;5080981;28;20401;-87
2022/05/14 14:28:36;;;;;;;5.90;2.70;;;;;;;;;;5080335;28;20449;-87
2022/05/14 14:31:03;;;;;;;3.13;1.90;;;;;;;;;;5089476;28;20441;-87
2022/05/14 14:33:33;;;;;;;4.60;2.30;;;;;;;;;;5082916;28;20409;-86
2022/05/14 14:35:59;;;;;;;3.93;2.13;;;;;;;;;;5084282;28;20412;-86
2022/05/14 14:38:26;;;;;;;4.33;2.20;;;;;;;;;;5087750;28;20424;-86
2022/05/14 14:40:52;;;;;;;3.80;2.00;;;;;;;;;;5081901;28;20951;-85
2022/05/14 14:43:18;;;;;;;2.90;1.60;;;;;;;;;;5082399;28;20392;-84
2022/05/14 14:45:44;;;;;;;5.77;1.90;;;;;;;;;;5077700;28;20420;-84
2022/05/14 14:48:12;;;;;;;3.77;1.60;;;;;;;;;;5076892;28;20444;-85
2022/05/14 14:50:39;;;;;;;3.80;1.70;;;;;;;;;;5062681;28;20527;-87
2022/05/14 14:53:05;;;;;;;6.00;1.47;;;;;;;;;;5080627;28;20401;-86
2022/05/14 14:55:31;;;;;;;2.80;2.03;;;;;;;;;;5080954;28;20404;-87
2022/05/14 14:57:57;;;;;;;3.80;2.13;;;;;;;;;;5062007;28;20416;-86
2022/05/14 15:00:25;;;;;;;4.70;1.80;;;;;;;;;;5082161;28;20448;-87
2022/05/14 15:02:54;;;;;;;4.63;1.90;;;;;;;;;;5080763;28;20405;-86
2022/05/14 15:05:23;;;;;;;4.47;1.90;;;;;;;;;;5064826;28;20412;-87
2022/05/14 15:07:50;;;;;;;4.40;1.60;;;;;;;;;;5068031;28;20409;-85
2022/05/14 15:10:16;;;;;;;5.93;2.23;;;;;;;;;;5064315;28;20432;-86
2022/05/14 15:12:43;;;;;;;4.70;1.73;;;;;;;;;;5063678;28;20924;-85